sensor_id;sensor_type;location;lat;lon;timestamp;temperature;humidity
20174;DHT22;10246;50.620;7.232;2023-10-08T00:01:43;16.20;9.00
20174;DHT22;10246;50.620;7.232;2023-10-08T00:04:10;16.10;9.40
20174;DHT22;10246;50.620;7.232;2023-10-08T00:06:37;16.00;9.90
20174;DHT22;10246;50.620;7.232;2023-10-08T00:09:04;16.00;10.00
20174;DHT22;10246;50.620;7.232;2023-10-08T00:11:34;16.00;10.00
20174;DHT22;10246;50.620;7.232;2023-10-08T00:14:03;16.10;9.90
20174;DHT22;10246;50.620;7.232;2023-10-08T00:16:35;16.10;9.60
20174;DHT22;10246;50.620;7.232;2023-10-08T00:19:05;16.10;9.50
20174;DHT22;10246;50.620;7.232;2023-10-08T00:21:35;16.10;9.30
20174;DHT22;10246;50.620;7.232;2023-10-08T00:24:04;16.10;9.90
20174;DHT22;10246;50.620;7.232;2023-10-08T00:26:33;16.20;9.10
20174;DHT22;10246;50.620;7.232;2023-10-08T00:29:06;16.20;8.90
20174;DHT22;10246;50.620;7.232;2023-10-08T00:31:42;16.20;8.70
20174;DHT22;10246;50.620;7.232;2023-10-08T00:34:11;16.20;8.70
20174;DHT22;10246;50.620;7.232;2023-10-08T00:36:40;16.20;8.60
20174;DHT22;10246;50.620;7.232;2023-10-08T00:39:07;16.20;8.60
20174;DHT22;10246;50.620;7.232;2023-10-08T00:41:39;16.20;8.50
20174;DHT22;10246;50.620;7.232;2023-10-08T00:44:08;16.10;8.60
20174;DHT22;10246;50.620;7.232;2023-10-08T00:46:38;16.10;8.70
20174;DHT22;10246;50.620;7.232;2023-10-08T00:49:09;16.10;8.70
20174;DHT22;10246;50.620;7.232;2023-10-08T00:51:50;16.00;8.60
20174;DHT22;10246;50.620;7.232;2023-10-08T00:54:29;16.00;8.70
20174;DHT22;10246;50.620;7.232;2023-10-08T00:56:59;16.00;8.20
20174;DHT22;10246;50.620;7.232;2023-10-08T00:59:31;16.00;7.90
20174;DHT22;10246;50.620;7.232;2023-10-08T01:02:10;15.90;8.50
20174;DHT22;10246;50.620;7.232;2023-10-08T01:04:42;15.80;8.50
20174;DHT22;10246;50.620;7.232;2023-10-08T01:07:12;15.80;8.60
20174;DHT22;10246;50.620;7.232;2023-10-08T01:09:41;15.80;8.70
20174;DHT22;10246;50.620;7.232;2023-10-08T01:12:13;15.70;8.40
20174;DHT22;10246;50.620;7.232;2023-10-08T01:14:41;15.70;8.60
20174;DHT22;10246;50.620;7.232;2023-10-08T01:17:12;15.70;8.40
20174;DHT22;10246;50.620;7.232;2023-10-08T01:19:42;15.70;8.50
20174;DHT22;10246;50.620;7.232;2023-10-08T01:22:12;15.70;8.40
20174;DHT22;10246;50.620;7.232;2023-10-08T01:24:43;15.60;8.00
20174;DHT22;10246;50.620;7.232;2023-10-08T01:27:11;15.60;8.00
20174;DHT22;10246;50.620;7.232;2023-10-08T01:29:38;15.50;8.40
20174;DHT22;10246;50.620;7.232;2023-10-08T01:32:09;15.40;8.40
20174;DHT22;10246;50.620;7.232;2023-10-08T01:34:36;15.50;8.70
20174;DHT22;10246;50.620;7.232;2023-10-08T01:37:02;15.50;8.70
20174;DHT22;10246;50.620;7.232;2023-10-08T01:39:36;15.40;9.60
20174;DHT22;10246;50.620;7.232;2023-10-08T01:42:03;15.40;8.70
20174;DHT22;10246;50.620;7.232;2023-10-08T01:44:31;15.30;8.80
20174;DHT22;10246;50.620;7.232;2023-10-08T01:46:59;15.40;8.20
20174;DHT22;10246;50.620;7.232;2023-10-08T01:49:26;15.30;8.30
20174;DHT22;10246;50.620;7.232;2023-10-08T01:51:58;15.20;8.30
20174;DHT22;10246;50.620;7.232;2023-10-08T01:54:31;15.30;8.30
20174;DHT22;10246;50.620;7.232;2023-10-08T01:57:02;15.20;8.60
20174;DHT22;10246;50.620;7.232;2023-10-08T01:59:31;15.20;8.40
20174;DHT22;10246;50.620;7.232;2023-10-08T02:01:58;15.10;9.30
20174;DHT22;10246;50.620;7.232;2023-10-08T02:04:25;15.10;8.90
20174;DHT22;10246;50.620;7.232;2023-10-08T02:06:52;15.00;9.00
20174;DHT22;10246;50.620;7.232;2023-10-08T02:09:19;15.00;9.00
20174;DHT22;10246;50.620;7.232;2023-10-08T02:11:51;15.00;8.50
20174;DHT22;10246;50.620;7.232;2023-10-08T02:14:20;15.00;8.50
20174;DHT22;10246;50.620;7.232;2023-10-08T02:16:48;15.00;8.90
20174;DHT22;10246;50.620;7.232;2023-10-08T02:19:15;15.00;8.50
20174;DHT22;10246;50.620;7.232;2023-10-08T02:21:44;14.90;8.50
20174;DHT22;10246;50.620;7.232;2023-10-08T02:24:12;14.80;8.90
20174;DHT22;10246;50.620;7.232;2023-10-08T02:26:39;14.80;8.90
20174;DHT22;10246;50.620;7.232;2023-10-08T02:29:09;14.80;9.00
20174;DHT22;10246;50.620;7.232;2023-10-08T02:31:39;14.70;9.20
20174;DHT22;10246;50.620;7.232;2023-10-08T02:34:06;14.70;9.20
20174;DHT22;10246;50.620;7.232;2023-10-08T02:36:34;14.80;9.40
20174;DHT22;10246;50.620;7.232;2023-10-08T02:39:03;14.80;8.90
20174;DHT22;10246;50.620;7.232;2023-10-08T02:41:32;14.80;8.50
20174;DHT22;10246;50.620;7.232;2023-10-08T02:43:59;14.70;9.40
20174;DHT22;10246;50.620;7.232;2023-10-08T02:46:26;14.70;9.30
20174;DHT22;10246;50.620;7.232;2023-10-08T02:48:56;14.70;10.00
20174;DHT22;10246;50.620;7.232;2023-10-08T02:51:23;14.60;10.20
20174;DHT22;10246;50.620;7.232;2023-10-08T02:53:50;14.60;10.00
20174;DHT22;10246;50.620;7.232;2023-10-08T02:56:17;14.60;9.80
20174;DHT22;10246;50.620;7.232;2023-10-08T02:58:44;14.50;10.30
20174;DHT22;10246;50.620;7.232;2023-10-08T03:01:13;14.40;10.50
20174;DHT22;10246;50.620;7.232;2023-10-08T03:03:41;14.50;11.00
20174;DHT22;10246;50.620;7.232;2023-10-08T03:06:09;14.50;10.20
20174;DHT22;10246;50.620;7.232;2023-10-08T03:08:38;14.50;10.10
20174;DHT22;10246;50.620;7.232;2023-10-08T03:11:09;14.50;10.10
20174;DHT22;10246;50.620;7.232;2023-10-08T03:13:43;14.40;10.10
20174;DHT22;10246;50.620;7.232;2023-10-08T03:16:12;14.50;9.80
20174;DHT22;10246;50.620;7.232;2023-10-08T03:18:40;14.40;10.10
20174;DHT22;10246;50.620;7.232;2023-10-08T03:21:11;14.40;10.50
20174;DHT22;10246;50.620;7.232;2023-10-08T03:24:07;14.40;10.60
20174;DHT22;10246;50.620;7.232;2023-10-08T03:26:38;14.40;10.40
20174;DHT22;10246;50.620;7.232;2023-10-08T03:29:06;14.40;10.60
20174;DHT22;10246;50.620;7.232;2023-10-08T03:31:33;14.30;11.50
20174;DHT22;10246;50.620;7.232;2023-10-08T03:34:16;14.40;12.00
20174;DHT22;10246;50.620;7.232;2023-10-08T03:36:46;14.40;12.00
20174;DHT22;10246;50.620;7.232;2023-10-08T03:39:15;14.40;12.60
20174;DHT22;10246;50.620;7.232;2023-10-08T03:41:44;14.50;13.30
20174;DHT22;10246;50.620;7.232;2023-10-08T03:44:24;14.50;13.60
20174;DHT22;10246;50.620;7.232;2023-10-08T03:46:55;14.60;13.70
20174;DHT22;10246;50.620;7.232;2023-10-08T03:49:22;14.50;13.90
20174;DHT22;10246;50.620;7.232;2023-10-08T03:51:54;14.60;14.10
20174;DHT22;10246;50.620;7.232;2023-10-08T03:54:23;14.50;14.40
20174;DHT22;10246;50.620;7.232;2023-10-08T03:56:59;14.50;14.60
20174;DHT22;10246;50.620;7.232;2023-10-08T03:59:27;14.60;14.50
20174;DHT22;10246;50.620;7.232;2023-10-08T04:01:57;14.60;14.20
20174;DHT22;10246;50.620;7.232;2023-10-08T04:04:39;14.60;14.00
20174;DHT22;10246;50.620;7.232;2023-10-08T04:07:24;14.70;13.60
20174;DHT22;10246;50.620;7.232;2023-10-08T04:09:50;14.60;13.20
20174;DHT22;10246;50.620;7.232;2023-10-08T04:12:26;14.60;13.50
20174;DHT22;10246;50.620;7.232;2023-10-08T04:14:52;14.60;14.10
20174;DHT22;10246;50.620;7.232;2023-10-08T04:17:21;14.60;14.00
20174;DHT22;10246;50.620;7.232;2023-10-08T04:19:48;14.60;13.80
20174;DHT22;10246;50.620;7.232;2023-10-08T04:22:16;14.50;14.00
20174;DHT22;10246;50.620;7.232;2023-10-08T04:24:45;14.50;14.10
20174;DHT22;10246;50.620;7.232;2023-10-08T04:27:13;14.50;13.90
20174;DHT22;10246;50.620;7.232;2023-10-08T04:29:40;14.50;13.90
20174;DHT22;10246;50.620;7.232;2023-10-08T04:32:08;14.50;13.90
20174;DHT22;10246;50.620;7.232;2023-10-08T04:34:37;14.50;13.80
20174;DHT22;10246;50.620;7.232;2023-10-08T04:37:09;14.50;13.80
20174;DHT22;10246;50.620;7.232;2023-10-08T04:39:38;14.50;13.90
20174;DHT22;10246;50.620;7.232;2023-10-08T04:42:07;14.50;13.70
20174;DHT22;10246;50.620;7.232;2023-10-08T04:44:37;14.50;13.90
20174;DHT22;10246;50.620;7.232;2023-10-08T04:47:06;14.50;13.60
20174;DHT22;10246;50.620;7.232;2023-10-08T04:49:53;14.60;13.50
20174;DHT22;10246;50.620;7.232;2023-10-08T04:52:22;14.50;13.40
20174;DHT22;10246;50.620;7.232;2023-10-08T04:54:50;14.50;13.70
20174;DHT22;10246;50.620;7.232;2023-10-08T04:57:21;14.50;14.40
20174;DHT22;10246;50.620;7.232;2023-10-08T04:59:51;14.50;13.50
20174;DHT22;10246;50.620;7.232;2023-10-08T05:02:19;14.50;13.70
20174;DHT22;10246;50.620;7.232;2023-10-08T05:04:49;14.50;13.70
20174;DHT22;10246;50.620;7.232;2023-10-08T05:07:33;14.50;13.90
20174;DHT22;10246;50.620;7.232;2023-10-08T05:10:26;14.50;13.40
20174;DHT22;10246;50.620;7.232;2023-10-08T05:13:21;14.40;13.30
20174;DHT22;10246;50.620;7.232;2023-10-08T05:15:56;14.30;14.10
20174;DHT22;10246;50.620;7.232;2023-10-08T05:18:37;14.40;14.10
20174;DHT22;10246;50.620;7.232;2023-10-08T05:21:33;14.40;13.90
20174;DHT22;10246;50.620;7.232;2023-10-08T05:24:17;14.40;14.20
20174;DHT22;10246;50.620;7.232;2023-10-08T05:26:53;14.40;14.60
20174;DHT22;10246;50.620;7.232;2023-10-08T05:29:35;14.40;15.20
20174;DHT22;10246;50.620;7.232;2023-10-08T05:32:28;14.40;15.20
20174;DHT22;10246;50.620;7.232;2023-10-08T05:35:09;14.30;15.10
20174;DHT22;10246;50.620;7.232;2023-10-08T05:37:53;14.40;15.20
20174;DHT22;10246;50.620;7.232;2023-10-08T05:40:38;14.40;15.20
20174;DHT22;10246;50.620;7.232;2023-10-08T05:43:31;14.40;15.20
20174;DHT22;10246;50.620;7.232;2023-10-08T05:46:14;14.40;15.20
20174;DHT22;10246;50.620;7.232;2023-10-08T05:49:01;14.40;15.20
20174;DHT22;10246;50.620;7.232;2023-10-08T05:51:48;14.30;15.10
20174;DHT22;10246;50.620;7.232;2023-10-08T05:54:36;14.30;15.30
20174;DHT22;10246;50.620;7.232;2023-10-08T05:57:23;14.20;15.70
20174;DHT22;10246;50.620;7.232;2023-10-08T06:00:05;14.20;16.00
20174;DHT22;10246;50.620;7.232;2023-10-08T06:03:09;14.20;16.00
20174;DHT22;10246;50.620;7.232;2023-10-08T06:06:00;14.30;16.10
20174;DHT22;10246;50.620;7.232;2023-10-08T06:08:45;14.40;15.20
20174;DHT22;10246;50.620;7.232;2023-10-08T06:11:29;14.40;15.20
20174;DHT22;10246;50.620;7.232;2023-10-08T06:14:07;14.40;15.20
20174;DHT22;10246;50.620;7.232;2023-10-08T06:16:40;14.50;15.30
20174;DHT22;10246;50.620;7.232;2023-10-08T06:19:14;14.50;15.30
20174;DHT22;10246;50.620;7.232;2023-10-08T06:21:41;14.50;15.30
20174;DHT22;10246;50.620;7.232;2023-10-08T06:24:11;14.60;14.90
20174;DHT22;10246;50.620;7.232;2023-10-08T06:26:44;14.50;14.70
20174;DHT22;10246;50.620;7.232;2023-10-08T06:29:14;14.50;15.00
20174;DHT22;10246;50.620;7.232;2023-10-08T06:31:53;14.60;15.30
20174;DHT22;10246;50.620;7.232;2023-10-08T06:34:22;14.60;15.10
20174;DHT22;10246;50.620;7.232;2023-10-08T06:36:53;14.70;15.10
20174;DHT22;10246;50.620;7.232;2023-10-08T06:39:21;14.70;14.50
20174;DHT22;10246;50.620;7.232;2023-10-08T06:41:52;14.70;15.00
20174;DHT22;10246;50.620;7.232;2023-10-08T06:44:19;14.60;15.00
20174;DHT22;10246;50.620;7.232;2023-10-08T06:46:46;14.60;15.40
20174;DHT22;10246;50.620;7.232;2023-10-08T06:49:14;14.60;15.30
20174;DHT22;10246;50.620;7.232;2023-10-08T06:51:45;14.70;15.40
20174;DHT22;10246;50.620;7.232;2023-10-08T06:54:13;14.70;15.40
20174;DHT22;10246;50.620;7.232;2023-10-08T06:56:42;14.70;15.40
20174;DHT22;10246;50.620;7.232;2023-10-08T06:59:12;14.80;15.40
20174;DHT22;10246;50.620;7.232;2023-10-08T07:01:39;14.70;15.40
20174;DHT22;10246;50.620;7.232;2023-10-08T07:04:06;14.70;15.70
20174;DHT22;10246;50.620;7.232;2023-10-08T07:06:40;14.80;15.50
20174;DHT22;10246;50.620;7.232;2023-10-08T07:09:10;14.80;15.40
20174;DHT22;10246;50.620;7.232;2023-10-08T07:11:48;14.90;15.50
20174;DHT22;10246;50.620;7.232;2023-10-08T07:14:20;15.00;15.60
20174;DHT22;10246;50.620;7.232;2023-10-08T07:16:47;14.90;15.50
20174;DHT22;10246;50.620;7.232;2023-10-08T07:19:19;14.90;15.50
20174;DHT22;10246;50.620;7.232;2023-10-08T07:21:49;14.90;15.50
20174;DHT22;10246;50.620;7.232;2023-10-08T07:24:25;15.00;15.60
20174;DHT22;10246;50.620;7.232;2023-10-08T07:27:04;15.00;15.60
20174;DHT22;10246;50.620;7.232;2023-10-08T07:29:38;15.10;15.60
20174;DHT22;10246;50.620;7.232;2023-10-08T07:32:04;15.10;15.60
20174;DHT22;10246;50.620;7.232;2023-10-08T07:34:36;15.20;15.70
20174;DHT22;10246;50.620;7.232;2023-10-08T07:37:03;15.30;15.80
20174;DHT22;10246;50.620;7.232;2023-10-08T07:39:32;15.50;14.70
20174;DHT22;10246;50.620;7.232;2023-10-08T07:42:09;15.50;14.90
20174;DHT22;10246;50.620;7.232;2023-10-08T07:44:36;15.60;14.70
20174;DHT22;10246;50.620;7.232;2023-10-08T07:47:04;15.60;14.50
20174;DHT22;10246;50.620;7.232;2023-10-08T07:49:35;15.70;14.60
20174;DHT22;10246;50.620;7.232;2023-10-08T07:52:02;15.70;14.10
20174;DHT22;10246;50.620;7.232;2023-10-08T07:54:32;15.70;14.30
20174;DHT22;10246;50.620;7.232;2023-10-08T07:57:00;15.70;14.10
20174;DHT22;10246;50.620;7.232;2023-10-08T07:59:37;15.80;13.80
20174;DHT22;10246;50.620;7.232;2023-10-08T08:02:07;15.80;14.10
20174;DHT22;10246;50.620;7.232;2023-10-08T08:04:35;15.90;13.60
20174;DHT22;10246;50.620;7.232;2023-10-08T08:07:02;15.90;12.90
20174;DHT22;10246;50.620;7.232;2023-10-08T08:09:32;16.00;13.30
20174;DHT22;10246;50.620;7.232;2023-10-08T08:12:04;16.00;13.10
20174;DHT22;10246;50.620;7.232;2023-10-08T08:14:33;16.10;12.80
20174;DHT22;10246;50.620;7.232;2023-10-08T08:17:04;16.20;12.90
20174;DHT22;10246;50.620;7.232;2023-10-08T08:19:38;16.30;12.50
20174;DHT22;10246;50.620;7.232;2023-10-08T08:22:05;16.50;12.00
20174;DHT22;10246;50.620;7.232;2023-10-08T08:24:33;16.70;9.90
20174;DHT22;10246;50.620;7.232;2023-10-08T08:27:03;16.60;9.80
20174;DHT22;10246;50.620;7.232;2023-10-08T08:29:36;16.60;9.80
20174;DHT22;10246;50.620;7.232;2023-10-08T08:32:10;16.60;9.80
20174;DHT22;10246;50.620;7.232;2023-10-08T08:34:41;16.70;9.90
20174;DHT22;10246;50.620;7.232;2023-10-08T08:37:09;16.80;9.30
20174;DHT22;10246;50.620;7.232;2023-10-08T08:39:38;16.90;9.30
20174;DHT22;10246;50.620;7.232;2023-10-08T08:42:04;16.90;9.30
20174;DHT22;10246;50.620;7.232;2023-10-08T08:44:33;16.90;9.80
20174;DHT22;10246;50.620;7.232;2023-10-08T08:47:01;17.00;9.80
20174;DHT22;10246;50.620;7.232;2023-10-08T08:49:31;17.20;9.10
20174;DHT22;10246;50.620;7.232;2023-10-08T08:51:59;17.40;8.10
20174;DHT22;10246;50.620;7.232;2023-10-08T08:54:27;17.60;7.30
20174;DHT22;10246;50.620;7.232;2023-10-08T08:56:59;17.70;6.40
20174;DHT22;10246;50.620;7.232;2023-10-08T08:59:27;18.10;4.40
20174;DHT22;10246;50.620;7.232;2023-10-08T09:01:56;18.20;3.00
20174;DHT22;10246;50.620;7.232;2023-10-08T09:04:28;18.30;1.90
20174;DHT22;10246;50.620;7.232;2023-10-08T09:06:55;18.20;1.40
20174;DHT22;10246;50.620;7.232;2023-10-08T09:09:25;18.30;1.30
20174;DHT22;10246;50.620;7.232;2023-10-08T09:11:59;18.40;1.20
20174;DHT22;10246;50.620;7.232;2023-10-08T09:14:27;18.60;1.00
20174;DHT22;10246;50.620;7.232;2023-10-08T09:16:55;18.70;1.00
20174;DHT22;10246;50.620;7.232;2023-10-08T09:19:23;18.90;1.00
20174;DHT22;10246;50.620;7.232;2023-10-08T09:22:02;19.10;1.00
20174;DHT22;10246;50.620;7.232;2023-10-08T09:24:30;19.40;1.00
20174;DHT22;10246;50.620;7.232;2023-10-08T09:27:00;19.50;1.00
20174;DHT22;10246;50.620;7.232;2023-10-08T09:29:29;19.70;1.00
20174;DHT22;10246;50.620;7.232;2023-10-08T09:31:57;19.70;1.00
20174;DHT22;10246;50.620;7.232;2023-10-08T09:34:26;19.80;1.00
20174;DHT22;10246;50.620;7.232;2023-10-08T09:36:56;19.80;1.00
20174;DHT22;10246;50.620;7.232;2023-10-08T09:39:23;20.10;1.00
20174;DHT22;10246;50.620;7.232;2023-10-08T09:41:53;20.10;1.00
20174;DHT22;10246;50.620;7.232;2023-10-08T09:44:23;20.10;1.00
20174;DHT22;10246;50.620;7.232;2023-10-08T09:46:52;20.20;1.00
20174;DHT22;10246;50.620;7.232;2023-10-08T09:49:30;20.30;1.00
20174;DHT22;10246;50.620;7.232;2023-10-08T09:52:00;20.50;1.00
20174;DHT22;10246;50.620;7.232;2023-10-08T09:54:29;20.40;1.00
20174;DHT22;10246;50.620;7.232;2023-10-08T09:56:59;20.40;1.00
20174;DHT22;10246;50.620;7.232;2023-10-08T09:59:30;20.40;1.00
20174;DHT22;10246;50.620;7.232;2023-10-08T10:01:57;20.40;1.00
20174;DHT22;10246;50.620;7.232;2023-10-08T10:04:26;20.40;1.00
20174;DHT22;10246;50.620;7.232;2023-10-08T10:06:57;20.50;1.00
20174;DHT22;10246;50.620;7.232;2023-10-08T10:09:25;20.60;1.00
20174;DHT22;10246;50.620;7.232;2023-10-08T10:11:54;20.70;1.00
20174;DHT22;10246;50.620;7.232;2023-10-08T10:14:23;20.70;1.00
20174;DHT22;10246;50.620;7.232;2023-10-08T10:19:45;20.70;1.00
20174;DHT22;10246;50.620;7.232;2023-10-08T10:22:14;20.80;1.00
20174;DHT22;10246;50.620;7.232;2023-10-08T10:24:42;20.80;1.00
20174;DHT22;10246;50.620;7.232;2023-10-08T10:27:12;20.80;1.00
20174;DHT22;10246;50.620;7.232;2023-10-08T10:29:40;20.90;1.00
20174;DHT22;10246;50.620;7.232;2023-10-08T10:32:10;21.10;1.00
20174;DHT22;10246;50.620;7.232;2023-10-08T10:34:39;21.20;1.00
20174;DHT22;10246;50.620;7.232;2023-10-08T10:37:07;21.20;1.00
20174;DHT22;10246;50.620;7.232;2023-10-08T10:39:50;21.20;1.00
20174;DHT22;10246;50.620;7.232;2023-10-08T10:42:19;21.20;1.00
20174;DHT22;10246;50.620;7.232;2023-10-08T10:44:47;21.20;1.00
20174;DHT22;10246;50.620;7.232;2023-10-08T10:47:16;21.40;1.00
20174;DHT22;10246;50.620;7.232;2023-10-08T10:50:08;21.40;1.00
20174;DHT22;10246;50.620;7.232;2023-10-08T10:52:52;21.60;1.00
20174;DHT22;10246;50.620;7.232;2023-10-08T10:55:20;21.70;1.00
20174;DHT22;10246;50.620;7.232;2023-10-08T10:57:57;21.70;1.00
20174;DHT22;10246;50.620;7.232;2023-10-08T11:00:30;21.90;1.00
20174;DHT22;10246;50.620;7.232;2023-10-08T11:03:22;21.90;1.00
20174;DHT22;10246;50.620;7.232;2023-10-08T11:05:52;22.00;1.00
20174;DHT22;10246;50.620;7.232;2023-10-08T11:08:22;22.10;1.00
20174;DHT22;10246;50.620;7.232;2023-10-08T11:10:51;22.30;1.00
20174;DHT22;10246;50.620;7.232;2023-10-08T11:13:19;22.40;1.00
20174;DHT22;10246;50.620;7.232;2023-10-08T11:15:48;22.40;1.00
20174;DHT22;10246;50.620;7.232;2023-10-08T11:18:19;22.40;1.00
20174;DHT22;10246;50.620;7.232;2023-10-08T11:20:47;22.40;1.00
20174;DHT22;10246;50.620;7.232;2023-10-08T11:23:35;22.40;1.00
20174;DHT22;10246;50.620;7.232;2023-10-08T11:26:03;22.50;1.00
20174;DHT22;10246;50.620;7.232;2023-10-08T11:28:31;22.60;1.00
20174;DHT22;10246;50.620;7.232;2023-10-08T11:31:00;22.70;1.00
20174;DHT22;10246;50.620;7.232;2023-10-08T11:33:34;22.70;1.00
20174;DHT22;10246;50.620;7.232;2023-10-08T11:36:02;22.80;1.00
20174;DHT22;10246;50.620;7.232;2023-10-08T11:38:39;22.70;1.00
20174;DHT22;10246;50.620;7.232;2023-10-08T11:41:13;22.70;1.00
20174;DHT22;10246;50.620;7.232;2023-10-08T11:43:47;22.70;1.00
20174;DHT22;10246;50.620;7.232;2023-10-08T11:46:20;22.80;1.00
20174;DHT22;10246;50.620;7.232;2023-10-08T11:48:47;23.00;1.00
20174;DHT22;10246;50.620;7.232;2023-10-08T11:51:13;23.20;1.00
20174;DHT22;10246;50.620;7.232;2023-10-08T11:53:44;23.30;1.00
20174;DHT22;10246;50.620;7.232;2023-10-08T11:56:11;23.30;1.00
20174;DHT22;10246;50.620;7.232;2023-10-08T11:58:40;23.30;1.00
20174;DHT22;10246;50.620;7.232;2023-10-08T12:01:10;23.20;1.00
20174;DHT22;10246;50.620;7.232;2023-10-08T12:03:41;23.10;1.00
20174;DHT22;10246;50.620;7.232;2023-10-08T12:06:09;22.90;1.00
20174;DHT22;10246;50.620;7.232;2023-10-08T12:08:41;22.80;1.00
20174;DHT22;10246;50.620;7.232;2023-10-08T12:11:12;22.80;1.00
20174;DHT22;10246;50.620;7.232;2023-10-08T12:13:39;22.90;1.00
20174;DHT22;10246;50.620;7.232;2023-10-08T12:16:11;23.20;1.00
20174;DHT22;10246;50.620;7.232;2023-10-08T12:18:44;23.30;1.00
20174;DHT22;10246;50.620;7.232;2023-10-08T12:21:14;23.10;1.00
20174;DHT22;10246;50.620;7.232;2023-10-08T12:23:41;23.10;1.00
20174;DHT22;10246;50.620;7.232;2023-10-08T12:26:12;23.20;1.00
20174;DHT22;10246;50.620;7.232;2023-10-08T12:28:41;23.30;1.00
20174;DHT22;10246;50.620;7.232;2023-10-08T12:31:10;23.30;1.00
20174;DHT22;10246;50.620;7.232;2023-10-08T12:33:37;23.50;1.00
20174;DHT22;10246;50.620;7.232;2023-10-08T12:36:04;23.60;1.00
20174;DHT22;10246;50.620;7.232;2023-10-08T12:38:36;23.50;1.00
20174;DHT22;10246;50.620;7.232;2023-10-08T12:41:03;23.40;1.00
20174;DHT22;10246;50.620;7.232;2023-10-08T12:43:39;23.30;1.00
20174;DHT22;10246;50.620;7.232;2023-10-08T12:46:08;23.20;1.00
20174;DHT22;10246;50.620;7.232;2023-10-08T12:48:41;23.20;1.00
20174;DHT22;10246;50.620;7.232;2023-10-08T12:51:09;23.10;1.00
20174;DHT22;10246;50.620;7.232;2023-10-08T12:53:37;23.00;1.00
20174;DHT22;10246;50.620;7.232;2023-10-08T12:56:04;23.10;1.00
20174;DHT22;10246;50.620;7.232;2023-10-08T12:58:33;22.90;1.00
20174;DHT22;10246;50.620;7.232;2023-10-08T13:01:08;22.70;1.00
20174;DHT22;10246;50.620;7.232;2023-10-08T13:03:35;22.60;1.00
20174;DHT22;10246;50.620;7.232;2023-10-08T13:06:07;22.70;1.00
20174;DHT22;10246;50.620;7.232;2023-10-08T13:08:37;22.60;1.00
20174;DHT22;10246;50.620;7.232;2023-10-08T13:11:04;22.60;1.00
20174;DHT22;10246;50.620;7.232;2023-10-08T13:13:31;22.60;1.00
20174;DHT22;10246;50.620;7.232;2023-10-08T13:15:58;22.60;1.00
20174;DHT22;10246;50.620;7.232;2023-10-08T13:18:30;22.50;1.00
20174;DHT22;10246;50.620;7.232;2023-10-08T13:20:58;22.40;1.00
20174;DHT22;10246;50.620;7.232;2023-10-08T13:23:26;22.50;1.00
20174;DHT22;10246;50.620;7.232;2023-10-08T13:25:53;22.50;1.00
20174;DHT22;10246;50.620;7.232;2023-10-08T13:28:21;22.50;1.00
20174;DHT22;10246;50.620;7.232;2023-10-08T13:30:48;22.50;1.00
20174;DHT22;10246;50.620;7.232;2023-10-08T13:33:18;22.60;1.00
20174;DHT22;10246;50.620;7.232;2023-10-08T13:35:47;22.50;1.00
20174;DHT22;10246;50.620;7.232;2023-10-08T13:38:16;22.60;1.00
20174;DHT22;10246;50.620;7.232;2023-10-08T13:40:45;22.70;1.00
20174;DHT22;10246;50.620;7.232;2023-10-08T13:43:28;22.90;1.00
20174;DHT22;10246;50.620;7.232;2023-10-08T13:46:00;23.00;1.00
20174;DHT22;10246;50.620;7.232;2023-10-08T13:48:29;23.20;1.00
20174;DHT22;10246;50.620;7.232;2023-10-08T13:51:00;23.10;1.00
20174;DHT22;10246;50.620;7.232;2023-10-08T13:53:26;23.10;1.00
20174;DHT22;10246;50.620;7.232;2023-10-08T13:55:56;23.00;1.00
20174;DHT22;10246;50.620;7.232;2023-10-08T13:58:23;23.00;1.00
20174;DHT22;10246;50.620;7.232;2023-10-08T14:00:50;22.80;1.00
20174;DHT22;10246;50.620;7.232;2023-10-08T14:03:18;22.80;1.00
20174;DHT22;10246;50.620;7.232;2023-10-08T14:05:47;22.70;1.00
20174;DHT22;10246;50.620;7.232;2023-10-08T14:08:17;22.80;1.00
20174;DHT22;10246;50.620;7.232;2023-10-08T14:10:44;22.70;1.00
20174;DHT22;10246;50.620;7.232;2023-10-08T14:13:14;22.70;1.00
20174;DHT22;10246;50.620;7.232;2023-10-08T14:15:45;22.70;1.00
20174;DHT22;10246;50.620;7.232;2023-10-08T14:18:14;22.80;1.00
20174;DHT22;10246;50.620;7.232;2023-10-08T14:20:43;22.90;1.00
20174;DHT22;10246;50.620;7.232;2023-10-08T14:23:12;23.00;1.00
20174;DHT22;10246;50.620;7.232;2023-10-08T14:25:43;23.20;1.00
20174;DHT22;10246;50.620;7.232;2023-10-08T14:28:11;23.40;1.00
20174;DHT22;10246;50.620;7.232;2023-10-08T14:30:48;23.50;1.00
20174;DHT22;10246;50.620;7.232;2023-10-08T14:33:19;23.40;1.00
20174;DHT22;10246;50.620;7.232;2023-10-08T14:35:50;23.40;1.00
20174;DHT22;10246;50.620;7.232;2023-10-08T14:38:34;23.50;1.00
20174;DHT22;10246;50.620;7.232;2023-10-08T14:41:20;23.50;1.00
20174;DHT22;10246;50.620;7.232;2023-10-08T14:44:04;23.30;1.00
20174;DHT22;10246;50.620;7.232;2023-10-08T14:46:32;23.10;1.00
20174;DHT22;10246;50.620;7.232;2023-10-08T14:49:03;23.20;1.00
20174;DHT22;10246;50.620;7.232;2023-10-08T14:51:36;23.20;1.00
20174;DHT22;10246;50.620;7.232;2023-10-08T14:54:04;23.30;1.00
20174;DHT22;10246;50.620;7.232;2023-10-08T14:56:34;23.20;1.00
20174;DHT22;10246;50.620;7.232;2023-10-08T14:59:02;23.20;1.00
20174;DHT22;10246;50.620;7.232;2023-10-08T15:01:29;23.10;1.00
20174;DHT22;10246;50.620;7.232;2023-10-08T15:03:58;23.00;1.00
20174;DHT22;10246;50.620;7.232;2023-10-08T15:06:29;22.90;1.00
20174;DHT22;10246;50.620;7.232;2023-10-08T15:08:56;22.80;1.00
20174;DHT22;10246;50.620;7.232;2023-10-08T15:11:23;22.80;1.00
20174;DHT22;10246;50.620;7.232;2023-10-08T15:13:52;22.80;1.00
20174;DHT22;10246;50.620;7.232;2023-10-08T15:16:19;22.70;1.00
20174;DHT22;10246;50.620;7.232;2023-10-08T15:18:48;22.60;1.00
20174;DHT22;10246;50.620;7.232;2023-10-08T15:21:15;22.50;1.00
20174;DHT22;10246;50.620;7.232;2023-10-08T15:23:43;22.50;1.00
20174;DHT22;10246;50.620;7.232;2023-10-08T15:26:10;22.40;1.00
20174;DHT22;10246;50.620;7.232;2023-10-08T15:28:37;22.40;1.00
20174;DHT22;10246;50.620;7.232;2023-10-08T15:31:06;22.40;1.00
20174;DHT22;10246;50.620;7.232;2023-10-08T15:33:33;22.30;1.00
20174;DHT22;10246;50.620;7.232;2023-10-08T15:36:00;22.20;1.00
20174;DHT22;10246;50.620;7.232;2023-10-08T15:38:27;22.40;1.00
20174;DHT22;10246;50.620;7.232;2023-10-08T15:40:54;22.40;1.00
20174;DHT22;10246;50.620;7.232;2023-10-08T15:43:21;22.40;1.00
20174;DHT22;10246;50.620;7.232;2023-10-08T15:45:47;22.40;1.00
20174;DHT22;10246;50.620;7.232;2023-10-08T15:48:15;22.30;1.00
20174;DHT22;10246;50.620;7.232;2023-10-08T15:50:42;22.30;1.00
20174;DHT22;10246;50.620;7.232;2023-10-08T15:53:09;22.30;1.00
20174;DHT22;10246;50.620;7.232;2023-10-08T15:55:36;22.20;1.00
20174;DHT22;10246;50.620;7.232;2023-10-08T15:58:03;22.10;1.00
20174;DHT22;10246;50.620;7.232;2023-10-08T16:00:30;22.10;1.00
20174;DHT22;10246;50.620;7.232;2023-10-08T16:02:58;21.90;1.00
20174;DHT22;10246;50.620;7.232;2023-10-08T16:05:26;21.90;1.00
20174;DHT22;10246;50.620;7.232;2023-10-08T16:07:53;21.80;1.00